Time;durP1;ratioP1;P1;durP2;ratioP2;P2;SDS_P1;SDS_P2;PMS_P1;PMS_P2;Temp;Humidity;BMP_temperature;BMP_pressure;BME280_temperature;BME280_humidity;BME280_pressure;Samples;Min_cycle;Max_cycle;Signal;HPM_P1;HPM_P2
2022/08/16 00:01:00;;;;;;;;;31.50;27.75;;;;;24.51;51.73;100080.69;5057949;28;46386;-62
2022/08/16 00:03:26;;;;;;;;;32.75;29.00;;;;;24.45;51.83;100080.00;5057239;28;45363;-61
2022/08/16 00:05:51;;;;;;;;;27.50;26.25;;;;;24.43;52.13;100085.09;5057110;28;45381;-61
2022/08/16 00:08:17;;;;;;;;;28.50;26.75;;;;;24.42;52.09;100085.41;5057229;28;45456;-62
2022/08/16 00:10:43;;;;;;;;;26.25;26.25;;;;;24.38;51.91;100090.03;5057213;28;45873;-62
2022/08/16 00:13:08;;;;;;;;;36.00;31.50;;;;;23.93;52.04;100030.06;5056876;28;45436;-61
2022/08/16 00:15:40;;;;;;;;;28.25;27.00;;;;;24.27;52.49;100084.69;5057230;28;45475;-62
2022/08/16 00:18:05;;;;;;;;;27.80;27.60;;;;;24.33;52.52;100094.63;5023634;28;45302;-62
2022/08/16 00:20:31;;;;;;;;;29.50;29.50;;;;;24.25;52.56;100080.53;5027986;28;46372;-62
2022/08/16 00:22:57;;;;;;;;;30.20;29.00;;;;;24.31;52.80;100099.72;5076585;28;45390;-61
2022/08/16 00:25:23;;;;;;;;;28.00;25.75;;;;;24.19;52.57;100094.72;5060157;28;45421;-62
2022/08/16 00:27:48;;;;;;;;;31.80;30.40;;;;;24.20;52.71;100095.53;5060026;28;45562;-62
2022/08/16 00:30:14;;;;;;;;;35.75;31.50;;;;;24.21;52.24;100102.78;5077510;28;45948;-62
2022/08/16 00:32:41;;;;;;;;;32.75;31.25;;;;;24.21;52.44;100106.44;5076792;28;45374;-62
2022/08/16 00:35:07;;;;;;;;;29.40;28.40;;;;;24.14;52.39;100106.06;5059875;28;45398;-62
2022/08/16 00:37:33;;;;;;;;;28.60;28.60;;;;;24.07;52.82;100111.28;5077138;28;45859;-63
2022/08/16 00:39:58;;;;;;;;;33.50;29.25;;;;;24.04;52.99;100106.28;5077187;27;46557;-63
2022/08/16 00:42:27;;;;;;;;;26.00;25.50;;;;;24.05;52.95;100103.16;5077758;28;45869;-63
2022/08/16 00:44:55;;;;;;;;;32.40;30.80;;;;;24.05;52.72;100096.72;5059477;28;45416;-63
2022/08/16 00:47:20;;;;;;;;;30.80;28.60;;;;;24.06;52.89;100101.19;5076569;28;45566;-63
2022/08/16 00:49:46;;;;;;;;;31.75;30.50;;;;;24.05;52.48;100088.31;5076237;28;45473;-63
2022/08/16 00:52:11;;;;;;;;;26.25;26.25;;;;;24.12;52.50;100097.13;5076365;28;45392;-63
2022/08/16 00:54:37;;;;;;;;;27.25;27.25;;;;;24.14;52.54;100092.03;5075604;28;45425;-63
2022/08/16 00:57:02;;;;;;;;;29.50;26.00;;;;;24.12;52.34;100090.69;5076742;28;45342;-63
2022/08/16 00:59:30;;;;;;;;;26.50;24.75;;;;;24.12;52.81;100087.91;5075947;28;46764;-63
2022/08/16 01:01:55;;;;;;;;;29.80;29.80;;;;;24.13;52.26;100087.59;5068219;28;45393;-62
2022/08/16 01:04:22;;;;;;;;;31.50;29.25;;;;;23.95;52.48;100056.59;5055997;28;45398;-62
2022/08/16 01:06:48;;;;;;;;;33.20;29.20;;;;;23.94;52.21;100057.75;5039358;28;45484;-62
2022/08/16 01:09:14;;;;;;;;;27.00;27.00;;;;;24.12;52.67;100080.31;5055885;28;46735;-62
2022/08/16 01:11:39;;;;;;;;;30.75;29.75;;;;;24.10;52.51;100074.19;5039006;28;45378;-60
2022/08/16 01:14:11;;;;;;;;;29.25;28.25;;;;;24.08;52.52;100070.91;5055957;28;45483;-62
2022/08/16 01:16:36;;;;;;;;;30.60;29.40;;;;;24.08;52.92;100066.09;5039499;28;45454;-62
2022/08/16 01:19:16;;;;;;;;;25.75;25.75;;;;;24.01;52.56;100059.28;5055753;28;45881;-62
2022/08/16 01:21:53;;;;;;;;;33.80;30.80;;;;;24.12;52.25;100073.88;5040609;28;45386;-63
2022/08/16 01:24:23;;;;;;;;;34.20;28.60;;;;;24.10;52.61;100074.19;5056098;28;45316;-63
2022/08/16 01:26:49;;;;;;;;;26.40;25.60;;;;;24.03;52.74;100071.84;5055318;28;45411;-63
2022/08/16 01:29:21;;;;;;;;;30.75;29.75;;;;;24.11;52.52;100081.44;5039126;28;47830;-62
2022/08/16 01:31:47;;;;;;;;;26.40;25.20;;;;;24.12;52.40;100074.69;5056903;28;45712;-63
2022/08/16 01:34:13;;;;;;;;;25.60;23.80;;;;;23.94;52.61;100054.97;5057283;28;45276;-63
2022/08/16 01:36:38;;;;;;;;;27.75;26.50;;;;;24.07;52.33;100070.06;5055865;28;45393;-63
2022/08/16 01:39:09;;;;;;;;;27.75;25.00;;;;;24.12;52.00;100069.09;5056827;28;46817;-63
2022/08/16 01:41:35;;;;;;;;;30.00;29.60;;;;;23.95;52.56;100047.34;5056738;28;45353;-62
2022/08/16 01:44:01;;;;;;;;;31.50;29.25;;;;;24.01;52.23;100070.50;5055608;28;45458;-63
2022/08/16 01:46:28;;;;;;;;;25.80;25.80;;;;;24.06;52.36;100076.81;5055909;28;46155;-63
2022/08/16 01:49:00;;;;;;;;;28.00;27.00;;;;;24.07;52.31;100069.25;5056271;28;45464;-62
2022/08/16 01:51:26;;;;;;;;;22.80;21.40;;;;;24.08;52.18;100062.50;5055628;28;45370;-63
2022/08/16 01:53:51;;;;;;;;;31.20;29.40;;;;;24.08;52.57;100074.50;5055394;28;45288;-63
2022/08/16 01:56:17;;;;;;;;;34.50;30.75;;;;;24.09;52.30;100081.78;5055998;28;45419;-62
2022/08/16 01:58:43;;;;;;;;;48.40;39.60;;;;;24.07;52.68;100074.84;5038369;28;47544;-63
2022/08/16 02:01:08;;;;;;;;;47.75;39.50;;;;;23.94;52.38;100071.78;5056086;28;45747;-63
2022/08/16 02:03:34;;;;;;;;;51.75;42.50;;;;;24.01;52.63;100073.28;5055467;28;45242;-62
2022/08/16 02:05:59;;;;;;;;;49.00;41.50;;;;;24.00;52.01;100068.84;5054253;28;45522;-62
2022/08/16 02:08:25;;;;;;;;;45.75;39.25;;;;;23.72;52.29;100024.97;5029013;28;46221;-62
2022/08/16 02:10:51;;;;;;;;;53.25;40.25;;;;;24.01;52.61;100078.91;5055849;28;45281;-62
2022/08/16 02:13:17;;;;;;;;;35.00;32.75;;;;;24.05;51.89;100079.91;5055317;28;45446;-63
2022/08/16 02:15:43;;;;;;;;;41.60;34.80;;;;;23.96;52.53;100063.84;5055365;28;45300;-62
2022/08/16 02:18:09;;;;;;;;;37.25;34.25;;;;;24.04;52.48;100067.88;5054677;28;45581;-62
2022/08/16 02:20:36;;;;;;;;;38.75;34.25;;;;;24.09;51.98;100072.53;5056079;28;45464;-62
2022/08/16 02:23:01;;;;;;;;;31.40;31.00;;;;;24.05;52.36;100065.88;5055043;28;45437;-62
2022/08/16 02:25:27;;;;;;;;;30.25;26.00;;;;;24.03;52.31;100079.41;5054564;28;45358;-62
2022/08/16 02:27:52;;;;;;;;;34.25;31.00;;;;;23.98;52.99;100071.13;5055709;28;46697;-61
2022/08/16 02:30:26;;;;;;;;;25.00;23.75;;;;;23.83;52.79;100043.19;5054480;28;45433;-61
2022/08/16 02:32:52;;;;;;;;;30.20;29.20;;;;;24.01;52.59;100053.69;5054814;28;45260;-62
2022/08/16 02:35:18;;;;;;;;;32.80;30.00;;;;;23.93;52.99;100041.25;5054948;27;46085;-62
2022/08/16 02:37:44;;;;;;;;;28.20;27.60;;;;;23.92;52.79;100037.66;5054337;28;45873;-62
2022/08/16 02:40:10;;;;;;;;;30.75;28.50;;;;;23.66;53.38;99996.28;5054170;28;45434;-62
2022/08/16 02:42:35;;;;;;;;;34.80;30.80;;;;;23.81;53.28;100027.84;5054739;28;45370;-62
2022/08/16 02:45:01;;;;;;;;;25.50;22.50;;;;;23.85;53.28;100023.22;5054540;28;45457;-62
2022/08/16 02:47:27;;;;;;;;;31.75;29.75;;;;;23.75;53.45;100018.72;5037383;28;48229;-62
2022/08/16 02:49:52;;;;;;;;;32.25;30.75;;;;;23.65;53.53;100007.78;5037464;28;46049;-63
2022/08/16 02:52:18;;;;;;;;;31.00;30.00;;;;;23.84;53.22;100035.59;5054445;28;45352;-62
2022/08/16 02:54:43;;;;;;;;;29.50;29.50;;;;;23.86;53.93;100030.53;5056094;28;45577;-62
2022/08/16 02:57:10;;;;;;;;;37.75;34.50;;;;;23.89;53.47;100029.03;5053480;28;46480;-63
2022/08/16 02:59:35;;;;;;;;;33.40;31.60;;;;;23.87;54.20;100012.56;5055615;28;45397;-62
2022/08/16 03:02:00;;;;;;;;;30.25;28.75;;;;;23.79;53.86;99996.50;5054146;28;45339;-63
2022/08/16 03:04:27;;;;;;;;;32.75;30.50;;;;;23.82;54.29;100001.47;5055371;28;45827;-62
2022/08/16 03:06:52;;;;;;;;;35.80;31.20;;;;;23.78;54.06;100006.06;5054378;28;45643;-63
2022/08/16 03:09:18;;;;;;;;;28.75;27.75;;;;;23.68;54.30;99996.78;5047286;28;45484;-65
2022/08/16 03:11:43;;;;;;;;;29.50;27.00;;;;;23.76;53.94;100003.59;5035952;28;45422;-64
2022/08/16 03:14:09;;;;;;;;;34.00;32.00;;;;;23.78;54.33;100006.88;5055389;28;45419;-62
2022/08/16 03:16:35;;;;;;;;;28.50;27.75;;;;;23.80;54.12;100010.19;5054853;28;46613;-63
2022/08/16 03:19:00;;;;;;;;;28.50;28.00;;;;;23.87;54.00;100015.34;5058825;28;45361;-64
2022/08/16 03:21:27;;;;;;;;;27.75;25.75;;;;;23.81;54.01;100011.84;5058352;28;45364;-63
2022/08/16 03:23:53;;;;;;;;;37.20;31.40;;;;;23.81;53.84;100031.44;5059296;28;45203;-63
2022/08/16 03:26:18;;;;;;;;;32.75;30.00;;;;;23.81;54.15;100025.03;5056899;28;45647;-63
2022/08/16 03:28:44;;;;;;;;;28.25;28.25;;;;;23.85;53.90;100026.03;5058865;28;45344;-61
2022/08/16 03:31:09;;;;;;;;;34.00;31.75;;;;;23.60;53.76;99994.75;5057030;28;45373;-63
2022/08/16 03:33:34;;;;;;;;;32.25;30.25;;;;;23.75;54.34;100029.13;5058825;28;45729;-63
2022/08/16 03:36:00;;;;;;;;;35.25;32.25;;;;;23.73;53.90;100021.03;5057242;28;45861;-63
2022/08/16 03:38:27;;;;;;;;;30.25;29.25;;;;;23.80;53.92;100046.59;5056783;28;45890;-63
2022/08/16 03:40:53;;;;;;;;;34.20;31.00;;;;;23.76;54.16;100039.16;5058638;28;45461;-62
2022/08/16 03:43:18;;;;;;;;;30.80;27.40;;;;;23.71;54.35;100042.09;5057663;28;45441;-63
2022/08/16 03:45:44;;;;;;;;;30.25;30.25;;;;;23.75;54.37;100043.94;5058122;28;46095;-62
2022/08/16 03:48:09;;;;;;;;;30.75;27.50;;;;;23.72;53.88;100041.78;5058571;28;45365;-64
2022/08/16 03:50:36;;;;;;;;;34.00;31.75;;;;;23.69;54.40;100051.66;5058072;28;45376;-64
2022/08/16 03:53:01;;;;;;;;;31.20;30.40;;;;;23.62;54.30;100036.41;5057529;28;45351;-65
2022/08/16 03:55:27;;;;;;;;;35.75;31.25;;;;;23.50;54.83;100028.59;5056729;28;45728;-64
2022/08/16 03:57:54;;;;;;;;;28.50;28.50;;;;;23.57;54.84;100048.56;5057159;28;45373;-63
2022/08/16 04:00:22;;;;;;;;;29.60;29.20;;;;;23.49;54.72;100038.13;5057091;28;45785;-63
2022/08/16 04:02:47;;;;;;;;;33.00;31.00;;;;;23.62;55.02;100070.03;5039804;28;45624;-64
2022/08/16 04:05:13;;;;;;;;;30.25;30.25;;;;;23.47;55.32;100046.03;5058218;28;46689;-64
2022/08/16 04:07:39;;;;;;;;;24.60;24.60;;;;;23.33;55.41;100030.13;5056732;28;45810;-64
2022/08/16 04:10:05;;;;;;;;;25.25;24.50;;;;;23.29;55.99;100035.50;5058287;28;45340;-64
2022/08/16 04:12:31;;;;;;;;;29.40;28.20;;;;;23.44;55.25;100063.47;5042412;28;45694;-64
2022/08/16 04:14:57;;;;;;;;;29.25;27.00;;;;;23.24;55.46;100031.97;5051749;28;45531;-63
2022/08/16 04:17:22;;;;;;;;;28.00;25.25;;;;;23.41;55.50;100056.50;5054924;28;45384;-64
2022/08/16 04:19:47;;;;;;;;;30.50;29.50;;;;;23.42;55.32;100064.59;5057560;28;45230;-63
2022/08/16 04:22:13;;;;;;;;;20.75;20.75;;;;;23.45;55.24;100059.50;5058149;28;45605;-64
2022/08/16 04:24:39;;;;;;;;;27.75;25.00;;;;;23.29;55.03;100029.88;5056562;28;46654;-62
2022/08/16 04:27:05;;;;;;;;;23.75;21.75;;;;;23.29;55.17;100029.88;5056016;28;45290;-64
2022/08/16 04:29:30;;;;;;;;;23.25;23.00;;;;;23.44;55.41;100063.47;5056089;28;45257;-64
2022/08/16 04:31:56;;;;;;;;;28.50;25.25;;;;;23.42;55.08;100061.81;5056503;28;45277;-63
2022/08/16 04:34:23;;;;;;;;;29.50;29.50;;;;;23.45;55.20;100059.50;5057658;28;46682;-63
2022/08/16 04:36:48;;;;;;;;;22.20;21.00;;;;;23.45;55.34;100059.50;5056167;28;45456;-64
2022/08/16 04:39:14;;;;;;;;;22.25;21.25;;;;;23.41;55.50;100062.94;5056432;28;45420;-64
2022/08/16 04:41:40;;;;;;;;;29.25;26.00;;;;;23.38;55.08;100063.56;5056582;28;45429;-64
2022/08/16 04:44:05;;;;;;;;;25.75;25.50;;;;;23.42;55.48;100067.41;5055773;28;45671;-64
2022/08/16 04:46:31;;;;;;;;;24.50;23.00;;;;;23.44;55.56;100066.25;5057603;28;45468;-63
2022/08/16 04:48:56;;;;;;;;;24.00;24.00;;;;;23.29;55.44;100037.44;5039237;28;45306;-64
2022/08/16 04:51:22;;;;;;;;;21.00;21.00;;;;;23.41;55.08;100057.34;5056416;28;45545;-65
2022/08/16 04:53:47;;;;;;;;;22.50;22.00;;;;;23.40;55.36;100058.50;5057048;28;46385;-62
2022/08/16 04:56:13;;;;;;;;;21.00;21.00;;;;;23.45;54.89;100067.91;5056013;28;45394;-63
2022/08/16 04:58:38;;;;;;;;;24.25;22.50;;;;;23.41;55.60;100065.75;5056350;28;45503;-63
2022/08/16 05:01:04;;;;;;;;;28.25;23.25;;;;;23.41;55.52;100074.16;5055843;28;45556;-63
2022/08/16 05:03:29;;;;;;;;;23.25;21.50;;;;;23.39;55.36;100068.06;5055642;28;48211;-63
2022/08/16 05:05:55;;;;;;;;;22.00;21.50;;;;;23.35;55.58;100069.81;5056020;28;45468;-64
2022/08/16 05:08:24;;;;;;;;;27.75;26.00;;;;;23.32;56.09;100078.00;5056073;28;45443;-62
2022/08/16 05:10:50;;;;;;;;;24.80;23.40;;;;;23.28;55.79;100080.59;5056157;28;45317;-64
2022/08/16 05:13:17;;;;;;;;;23.50;23.00;;;;;23.22;56.17;100073.44;5038701;28;45736;-63
2022/08/16 05:15:43;;;;;;;;;20.60;19.40;;;;;23.16;55.88;100083.94;5050081;28;45210;-64
2022/08/16 05:18:09;;;;;;;;;27.00;25.80;;;;;23.20;56.12;100084.13;5037482;28;45361;-63
2022/08/16 05:20:34;;;;;;;;;23.25;21.25;;;;;22.74;56.16;100012.06;5056039;28;45520;-63
2022/08/16 05:23:00;;;;;;;;;24.75;23.50;;;;;23.09;56.00;100072.31;5056608;28;45567;-63
2022/08/16 05:25:25;;;;;;;;;25.75;23.50;;;;;23.22;56.05;100099.44;5056629;28;45348;-63
2022/08/16 05:27:51;;;;;;;;;26.50;25.00;;;;;23.24;56.15;100102.78;5038962;28;45264;-62
2022/08/16 05:30:16;;;;;;;;;18.50;17.75;;;;;23.24;55.85;100090.75;5090002;27;45298;-63
2022/08/16 05:32:43;;;;;;;;;21.25;21.25;;;;;23.28;56.39;100102.97;5057030;28;46653;-64
2022/08/16 05:35:09;;;;;;;;;27.00;22.60;;;;;23.26;56.04;100105.28;5055622;28;45423;-63
2022/08/16 05:37:36;;;;;;;;;24.00;24.00;;;;;23.23;56.39;100111.47;5055915;28;45421;-63
2022/08/16 05:40:02;;;;;;;;;28.40;25.40;;;;;23.18;56.54;100103.19;5038850;28;45525;-65
2022/08/16 05:42:28;;;;;;;;;20.80;19.60;;;;;23.25;56.29;100100.78;5055248;28;45950;-62
2022/08/16 05:44:53;;;;;;;;;27.00;23.00;;;;;23.25;55.92;100098.84;5055738;28;45336;-65
2022/08/16 05:47:19;;;;;;;;;21.75;20.25;;;;;23.20;56.21;100110.13;5056771;28;45315;-64
2022/08/16 05:49:44;;;;;;;;;18.50;18.50;;;;;23.19;56.19;100108.47;5055728;28;45470;-63
2022/08/16 05:52:10;;;;;;;;;18.00;16.50;;;;;23.17;56.25;100104.34;5056593;28;46481;-64
2022/08/16 05:54:36;;;;;;;;;24.40;23.20;;;;;23.21;55.96;100119.38;5055152;28;45436;-63
2022/08/16 05:57:01;;;;;;;;;21.50;20.50;;;;;23.21;55.92;100105.38;5039033;28;45522;-63
2022/08/16 05:59:27;;;;;;;;;21.50;18.75;;;;;23.30;55.84;100117.50;5056562;28;45274;-64
2022/08/16 06:01:52;;;;;;;;;22.50;21.50;;;;;23.20;55.59;100098.94;5055391;28;46542;-64
2022/08/16 06:04:18;;;;;;;;;20.50;20.50;;;;;23.29;55.38;100124.22;5056200;28;45371;-63
2022/08/16 06:06:45;;;;;;;;;18.80;18.80;;;;;23.27;55.42;100118.13;5055339;28;45428;-63
2022/08/16 06:09:11;;;;;;;;;19.20;19.20;;;;;23.24;55.24;100102.78;5056795;28;45571;-62
2022/08/16 06:11:36;;;;;;;;;19.50;18.50;;;;;23.39;55.44;100129.66;5054950;28;45579;-63
2022/08/16 06:14:02;;;;;;;;;21.75;20.00;;;;;23.22;55.14;100104.22;5056468;28;45350;-63
2022/08/16 06:16:28;;;;;;;;;20.40;19.40;;;;;23.42;55.18;100140.19;5054819;28;45299;-65
2022/08/16 06:18:53;;;;;;;;;26.75;22.50;;;;;23.42;55.12;100131.81;5055361;27;45267;-64
2022/08/16 06:21:19;;;;;;;;;24.75;22.25;;;;;23.46;55.29;100126.41;5056445;28;46354;-64
2022/08/16 06:23:44;;;;;;;;;21.75;21.25;;;;;23.50;55.11;100137.78;5054408;28;45369;-64
2022/08/16 06:26:10;;;;;;;;;21.25;20.00;;;;;23.50;55.47;100132.19;5056357;28;45230;-64
2022/08/16 06:28:36;;;;;;;;;20.25;20.25;;;;;23.50;55.45;100140.59;5054903;28;45578;-64
2022/08/16 06:31:01;;;;;;;;;23.50;21.00;;;;;23.40;55.63;100141.66;5055011;28;46624;-64
2022/08/16 06:33:27;;;;;;;;;20.00;20.00;;;;;23.35;56.09;100136.16;5055638;28;45356;-63
2022/08/16 06:35:54;;;;;;;;;21.60;20.80;;;;;23.42;55.70;100134.59;5056161;28;45361;-64
2022/08/16 06:38:21;;;;;;;;;22.80;20.80;;;;;23.39;55.45;100135.25;5055091;28;45335;-64
2022/08/16 06:40:46;;;;;;;;;20.20;19.60;;;;;23.37;55.63;100128.28;5055208;28;46859;-62
2022/08/16 06:43:12;;;;;;;;;22.50;21.50;;;;;23.40;55.66;100125.69;5055886;28;45370;-63
2022/08/16 06:45:37;;;;;;;;;21.75;20.50;;;;;23.49;55.77;100127.75;5054887;28;45890;-63
2022/08/16 06:48:04;;;;;;;;;25.75;25.00;;;;;23.54;55.74;100136.03;5056087;28;45319;-64
2022/08/16 06:50:29;;;;;;;;;21.60;21.00;;;;;23.58;55.26;100133.44;5055893;28;46765;-64
2022/08/16 06:52:55;;;;;;;;;27.00;24.00;;;;;23.56;55.34;100139.34;5053556;28;45339;-64
2022/08/16 06:55:23;;;;;;;;;23.50;21.25;;;;;23.58;55.63;100139.84;5054957;28;45484;-67
2022/08/16 06:57:50;;;;;;;;;24.20;24.20;;;;;23.52;55.66;100132.69;5037677;28;45393;-65
2022/08/16 07:00:16;;;;;;;;;24.40;19.20;;;;;23.53;55.47;100131.59;5054488;28;46681;-68
2022/08/16 07:02:43;;;;;;;;;23.00;21.50;;;;;23.50;55.71;100126.59;5055581;28;45366;-68
2022/08/16 07:05:09;;;;;;;;;22.00;22.00;;;;;23.48;55.73;100137.28;5054670;28;45256;-66
2022/08/16 07:07:35;;;;;;;;;22.00;19.40;;;;;23.29;55.51;100116.66;5038094;28;45363;-68
2022/08/16 07:10:00;;;;;;;;;18.25;18.25;;;;;23.50;55.48;100133.03;5054368;28;45658;-66
2022/08/16 07:12:26;;;;;;;;;22.00;20.75;;;;;23.45;55.62;100135.94;5054371;28;45365;-64
2022/08/16 07:14:51;;;;;;;;;20.00;18.75;;;;;23.35;55.37;100119.38;5055506;28;45313;-64
2022/08/16 07:17:21;;;;;;;;;24.25;21.75;;;;;23.33;55.46;100114.09;5037993;28;45358;-64
2022/08/16 07:19:47;;;;;;;;;23.40;21.20;;;;;23.36;55.42;100123.81;5038010;28;45910;-56
2022/08/16 07:22:13;;;;;;;;;19.25;18.75;;;;;23.53;55.68;100140.00;5055364;28;45399;-61
2022/08/16 07:24:39;;;;;;;;;19.80;19.20;;;;;23.50;55.45;100130.25;5055797;28;45391;-60
2022/08/16 07:27:04;;;;;;;;;20.00;18.75;;;;;23.61;55.21;100139.22;5055028;28;45528;-60
2022/08/16 07:29:30;;;;;;;;;27.75;24.00;;;;;23.66;55.36;100155.09;5054950;28;46257;-61
2022/08/16 07:31:56;;;;;;;;;20.75;20.75;;;;;23.72;54.91;100148.22;5037024;28;45387;-60
2022/08/16 07:34:21;;;;;;;;;21.25;20.00;;;;;23.74;54.85;100143.13;5055200;28;45384;-62
2022/08/16 07:36:47;;;;;;;;;20.25;18.00;;;;;23.82;54.79;100147.16;5055589;28;45303;-62
2022/08/16 07:39:12;;;;;;;;;20.25;20.25;;;;;23.83;54.66;100158.06;5053063;28;45755;-59
2022/08/16 07:41:38;;;;;;;;;21.25;18.25;;;;;23.82;54.90;100162.00;5054658;28;45756;-64
2022/08/16 07:44:04;;;;;;;;;19.00;18.75;;;;;23.82;54.82;100161.16;5054248;28;45373;-61
2022/08/16 07:46:29;;;;;;;;;18.00;17.50;;;;;23.81;54.69;100156.72;5054362;28;45381;-62
2022/08/16 07:48:55;;;;;;;;;27.75;22.75;;;;;23.81;54.86;100156.72;5054753;28;45431;-63
2022/08/16 07:51:20;;;;;;;;;19.25;18.25;;;;;23.79;54.79;100157.00;5053169;28;45384;-62
2022/08/16 07:53:50;;;;;;;;;22.50;20.00;;;;;23.80;54.57;100157.84;5053468;28;45446;-62
2022/08/16 07:56:18;;;;;;;;;17.80;17.80;;;;;23.83;54.41;100160.84;5053802;28;45376;-64
2022/08/16 07:58:44;;;;;;;;;22.80;21.00;;;;;23.83;54.40;100157.22;5054486;28;46570;-63
2022/08/16 08:01:10;;;;;;;;;21.40;20.40;;;;;23.91;54.57;100167.66;5053354;28;45685;-65
2022/08/16 08:03:35;;;;;;;;;19.00;17.75;;;;;23.84;54.38;100147.66;5025086;27;45462;-64
2022/08/16 08:06:02;;;;;;;;;27.00;25.75;;;;;23.90;54.77;100154.00;5046433;27;45707;-66
2022/08/16 08:08:28;;;;;;;;;16.60;14.80;;;;;23.91;54.32;100155.63;5075279;28;45413;-65
2022/08/16 08:10:54;;;;;;;;;20.20;18.20;;;;;23.76;54.66;100132.44;5077000;28;45681;-66
2022/08/16 08:13:19;;;;;;;;;17.75;17.00;;;;;23.94;54.18;100155.00;5062074;28;46069;-64
2022/08/16 08:15:46;;;;;;;;;18.50;18.25;;;;;23.98;53.82;100155.19;5057857;28;45674;-64
2022/08/16 08:18:12;;;;;;;;;18.20;17.40;;;;;24.02;54.04;100153.41;5057871;28;46662;-66
2022/08/16 08:20:43;;;;;;;;;18.40;18.40;;;;;24.09;53.23;100156.63;5074781;28;45781;-66
2022/08/16 08:23:10;;;;;;;;;19.00;18.80;;;;;24.14;53.49;100158.47;5060842;28;45339;-65
2022/08/16 08:25:36;;;;;;;;;20.40;20.40;;;;;23.96;53.44;100128.31;5077068;28;45224;-65
2022/08/16 08:28:02;;;;;;;;;16.25;16.25;;;;;24.19;53.08;100162.00;5076527;28;45623;-65
2022/08/16 08:30:27;;;;;;;;;15.25;15.25;;;;;24.26;53.40;100149.50;5075119;28;45605;-64
2022/08/16 08:32:54;;;;;;;;;21.25;17.75;;;;;24.41;52.74;100156.66;5036682;28;45297;-63
2022/08/16 08:35:19;;;;;;;;;18.60;17.00;;;;;24.37;52.92;100145.28;5037430;28;45406;-64
2022/08/16 08:37:45;;;;;;;;;17.00;17.00;;;;;24.45;52.73;100152.91;5053064;28;45488;-65
2022/08/16 08:40:11;;;;;;;;;17.75;17.75;;;;;24.57;52.55;100162.72;5052922;28;45729;-63
2022/08/16 08:42:36;;;;;;;;;18.50;18.50;;;;;24.43;51.82;100129.16;5052904;28;45739;-65
2022/08/16 08:45:03;;;;;;;;;16.50;15.50;;;;;24.72;51.91;100169.91;5056479;28;45833;-63
2022/08/16 08:47:29;;;;;;;;;19.40;18.20;;;;;24.74;51.85;100173.19;5039111;28;46637;-63
2022/08/16 08:49:55;;;;;;;;;13.75;13.75;;;;;24.80;51.72;100174.75;5039459;28;45451;-62
2022/08/16 08:52:21;;;;;;;;;19.20;19.20;;;;;24.83;51.24;100167.66;5056526;28;45646;-59
2022/08/16 08:54:47;;;;;;;;;19.25;17.50;;;;;24.71;51.41;100138.19;5055483;28;45389;-63
2022/08/16 08:57:12;;;;;;;;;14.75;13.75;;;;;24.90;50.93;100168.84;5068872;28;46497;-64
2022/08/16 08:59:37;;;;;;;;;15.75;15.75;;;;;24.94;50.82;100169.03;5067152;28;45346;-63
2022/08/16 09:02:03;;;;;;;;;15.00;15.00;;;;;24.75;51.29;100152.41;5054932;28;45851;-62
2022/08/16 09:04:30;;;;;;;;;14.75;14.25;;;;;24.68;50.71;100129.59;5046051;28;45674;-59
2022/08/16 09:06:55;;;;;;;;;15.40;14.00;;;;;24.91;50.94;100169.66;5054030;28;45660;-63
2022/08/16 09:09:21;;;;;;;;;21.25;19.50;;;;;24.74;50.99;100148.78;5056306;28;45410;-62
2022/08/16 09:11:47;;;;;;;;;23.40;20.80;;;;;24.94;50.92;100173.81;5055717;28;45409;-64
2022/08/16 09:14:12;;;;;;;;;12.00;10.00;;;;;24.94;50.92;100168.19;5055859;28;45614;-62
2022/08/16 09:16:38;;;;;;;;;13.50;13.50;;;;;24.77;50.46;100148.13;5048519;28;46453;-62
2022/08/16 09:19:03;;;;;;;;;14.75;14.75;;;;;25.09;50.91;100193.03;5050664;28;45382;-63
2022/08/16 09:21:29;;;;;;;;;14.50;14.50;;;;;25.15;50.34;100180.53;5034479;28;45332;-62
2022/08/16 09:23:55;;;;;;;;;14.00;13.75;;;;;25.23;50.12;100192.91;5070824;28;45369;-67
2022/08/16 09:26:20;;;;;;;;;22.25;18.75;;;;;25.28;50.13;100195.59;5020859;28;47069;-60
2022/08/16 09:28:46;;;;;;;;;16.00;14.50;;;;;25.17;50.02;100172.59;5055323;28;45396;-62
2022/08/16 09:31:12;;;;;;;;;16.25;16.25;;;;;25.37;49.88;100191.97;5052553;28;45326;-62
2022/08/16 09:33:38;;;;;;;;;14.80;14.00;;;;;25.41;49.76;100198.59;5051479;28;45647;-62
2022/08/16 09:36:06;;;;;;;;;18.20;14.80;;;;;25.47;49.94;100202.91;5068260;28;45678;-63
2022/08/16 09:38:31;;;;;;;;;14.00;14.00;;;;;25.53;49.30;100196.00;5035305;28;45398;-63
2022/08/16 09:40:57;;;;;;;;;13.50;13.25;;;;;25.61;49.70;100196.34;5051663;28;45430;-62
2022/08/16 09:43:24;;;;;;;;;15.25;14.00;;;;;25.64;49.34;100187.25;5035080;28;45339;-63
2022/08/16 09:45:49;;;;;;;;;15.40;13.80;;;;;25.70;49.42;100186.78;5076464;28;46434;-62
2022/08/16 09:48:15;;;;;;;;;17.50;14.00;;;;;25.82;48.97;100197.38;5075808;28;45322;-63
2022/08/16 09:50:42;;;;;;;;;13.75;13.75;;;;;25.64;48.91;100159.16;5075812;28;45393;-63
2022/08/16 09:53:12;;;;;;;;;16.40;15.00;;;;;25.84;48.60;100200.66;5058853;28;45382;-64
2022/08/16 09:55:38;;;;;;;;;14.20;13.40;;;;;25.75;48.96;100185.78;5042699;28;45770;-63
2022/08/16 09:58:03;;;;;;;;;14.40;14.40;;;;;25.73;49.35;100187.28;5075952;28;45304;-61
2022/08/16 10:00:29;;;;;;;;;14.50;13.75;;;;;25.78;49.35;100179.50;5075710;28;45374;-63
2022/08/16 10:02:54;;;;;;;;;13.50;13.50;;;;;25.88;48.64;100197.22;5057422;28;45432;-64
2022/08/16 10:05:20;;;;;;;;;11.75;11.75;;;;;25.90;49.08;100197.69;5056111;28;46529;-64
2022/08/16 10:07:50;;;;;;;;;13.00;13.00;;;;;25.84;48.64;100177.38;5054489;28;45511;-63
2022/08/16 10:10:17;;;;;;;;;13.00;12.80;;;;;25.83;48.87;100165.28;5075350;28;45419;-63
2022/08/16 10:15:27;;;;;;;;;15.80;14.80;;;;;25.94;48.48;100164.97;5075258;28;45416;-63
2022/08/16 10:17:54;;;;;;;;;14.20;13.60;;;;;26.17;48.45;100193.75;5075127;27;45507;-63
2022/08/16 10:20:19;;;;;;;;;14.40;13.20;;;;;26.19;48.25;100193.44;5075906;28;45431;-64
2022/08/16 10:22:45;;;;;;;;;14.00;13.25;;;;;26.12;48.35;100196.72;5050401;28;45675;-64
2022/08/16 10:25:12;;;;;;;;;17.75;15.50;;;;;26.11;47.98;100192.25;5087325;27;46713;-62
2022/08/16 10:27:38;;;;;;;;;12.00;12.00;;;;;26.12;48.36;100206.00;5053997;28;45415;-64
2022/08/16 10:30:04;;;;;;;;;15.25;14.25;;;;;25.85;48.31;100156.53;5054346;28;45522;-64
2022/08/16 10:32:30;;;;;;;;;17.60;14.40;;;;;26.11;48.10;100207.13;5055359;28;45567;-64
2022/08/16 10:34:55;;;;;;;;;14.50;12.25;;;;;26.11;48.47;100207.13;5055037;28;45939;-64
2022/08/16 10:37:21;;;;;;;;;15.00;14.50;;;;;26.08;48.44;100199.38;5055901;28;45465;-65
2022/08/16 10:39:46;;;;;;;;;14.25;14.25;;;;;26.18;48.21;100203.84;5038112;28;45386;-63
2022/08/16 10:42:12;;;;;;;;;15.25;15.25;;;;;26.23;48.05;100200.06;5054738;28;45477;-64
2022/08/16 10:44:37;;;;;;;;;16.50;14.25;;;;;26.22;47.93;100195.59;5056009;28;45515;-63
2022/08/16 10:47:03;;;;;;;;;13.50;13.50;;;;;26.30;48.06;100196.75;5054362;28;45418;-62
2022/08/16 10:49:28;;;;;;;;;15.25;15.00;;;;;26.38;48.16;100195.91;5055926;28;45265;-64
2022/08/16 10:51:54;;;;;;;;;15.00;14.25;;;;;26.34;47.77;100176.06;5037887;28;45510;-64
2022/08/16 10:54:20;;;;;;;;;14.00;13.50;;;;;26.57;47.61;100192.72;5055397;28;46809;-62
2022/08/16 10:56:45;;;;;;;;;14.00;14.00;;;;;26.38;47.20;100156.53;5053292;28;45209;-63
2022/08/16 10:59:11;;;;;;;;;18.25;16.00;;;;;26.70;47.47;100206.91;5066261;28;45354;-62
2022/08/16 11:01:36;;;;;;;;;12.50;12.50;;;;;26.74;47.18;100211.53;5052705;28;45550;-62
2022/08/16 11:04:02;;;;;;;;;13.75;13.75;;;;;26.83;46.74;100205.09;5054267;28;45381;-60
2022/08/16 11:06:28;;;;;;;;;15.75;13.75;;;;;26.91;47.18;100213.53;5054076;28;45806;-60